Time;durP1;ratioP1;P1;durP2;ratioP2;P2;SDS_P1;SDS_P2;PMS_P1;PMS_P2;Temp;Humidity;BMP_temperature;BMP_pressure;BME280_temperature;BME280_humidity;BME280_pressure;Samples;Min_cycle;Max_cycle;Signal;HPM_P1;HPM_P2
2022/10/13 00:00:59;;;;;;;16.10;11.20;;;7.60;1.00;;;;;;5059056;28;20195;-64
2022/10/13 00:03:26;;;;;;;16.90;11.33;;;7.60;1.00;;;;;;5025556;28;20235;-64
2022/10/13 00:05:53;;;;;;;16.83;12.20;;;7.60;1.00;;;;;;5056708;28;20200;-66
2022/10/13 00:08:21;;;;;;;15.33;11.50;;;7.70;1.00;;;;;;5053260;28;20223;-65
2022/10/13 00:10:49;;;;;;;20.07;12.10;;;7.70;1.00;;;;;;5023706;28;20256;-64
2022/10/13 00:13:22;;;;;;;13.50;10.93;;;7.80;1.00;;;;;;5040592;28;20320;-63
2022/10/13 00:15:49;;;;;;;14.30;10.87;;;7.80;1.00;;;;;;5038468;28;20192;-63
2022/10/13 00:18:16;;;;;;;15.47;10.57;;;7.90;1.00;;;;;;5030881;28;20274;-64
2022/10/13 00:20:46;;;;;;;14.27;10.90;;;7.90;1.00;;;;;;5022765;28;20412;-63
2022/10/13 00:23:14;;;;;;;16.47;11.47;;;8.00;1.00;;;;;;5022329;28;20203;-64
2022/10/13 00:25:42;;;;;;;15.53;10.00;;;8.00;1.00;;;;;;5022747;28;20658;-64
2022/10/13 00:28:10;;;;;;;13.13;9.70;;;8.10;1.00;;;;;;5032605;28;20258;-64
2022/10/13 00:30:37;;;;;;;13.87;10.23;;;8.10;1.00;;;;;;5009295;28;20315;-63
2022/10/13 00:33:05;;;;;;;14.00;10.87;;;8.20;1.00;;;;;;5022224;28;20196;-64
2022/10/13 00:35:33;;;;;;;13.90;9.57;;;8.20;1.00;;;;;;5018727;28;20258;-65
2022/10/13 00:38:00;;;;;;;15.17;10.53;;;8.20;1.00;;;;;;5019742;28;20201;-63
2022/10/13 00:40:29;;;;;;;17.63;13.17;;;8.20;1.00;;;;;;5023241;28;20594;-64
2022/10/13 00:42:57;;;;;;;18.83;12.83;;;8.20;1.00;;;;;;5001905;28;20654;-63
2022/10/13 00:45:27;;;;;;;25.43;13.57;;;8.10;1.00;;;;;;5009307;28;20212;-63
2022/10/13 00:47:57;;;;;;;15.63;10.90;;;8.00;1.00;;;;;;5019986;28;20231;-65
2022/10/13 00:50:30;;;;;;;15.57;10.83;;;7.90;1.00;;;;;;5001269;28;20208;-64
2022/10/13 00:53:00;;;;;;;13.90;10.03;;;7.90;1.00;;;;;;5033518;28;20219;-64
2022/10/13 00:55:32;;;;;;;17.13;10.30;;;7.80;99.90;;;;;;5018436;28;20202;-65
2022/10/13 00:58:01;;;;;;;12.77;9.37;;;7.90;99.90;;;;;;5035670;28;20199;-64
2022/10/13 01:00:33;;;;;;;16.67;9.50;;;7.90;99.90;;;;;;5026213;28;20279;-64
2022/10/13 01:03:01;;;;;;;15.07;10.03;;;8.00;99.90;;;;;;5019542;28;20192;-65
2022/10/13 01:05:30;;;;;;;14.43;9.77;;;8.00;99.90;;;;;;5034584;28;20201;-65
2022/10/13 01:07:58;;;;;;;12.73;9.50;;;8.00;99.90;;;;;;5021217;28;20263;-65
2022/10/13 01:10:38;;;;;;;13.27;9.70;;;8.00;99.90;;;;;;5010410;28;20209;-64
2022/10/13 01:13:16;;;;;;;11.87;9.03;;;8.10;99.90;;;;;;5020084;28;20334;-64
2022/10/13 01:15:52;;;;;;;11.97;9.30;;;8.10;99.90;;;;;;5032017;28;20332;-66
2022/10/13 01:18:29;;;;;;;16.93;9.40;;;8.10;99.90;;;;;;5018748;28;20338;-64
2022/10/13 01:21:08;;;;;;;14.13;8.47;;;8.00;99.90;;;;;;5017764;28;20208;-63
2022/10/13 01:23:59;;;;;;;14.00;9.47;;;8.00;99.90;;;;;;5017664;28;20284;-63
2022/10/13 01:26:42;;;;;;;12.70;9.30;;;7.90;99.90;;;;;;5032872;28;20804;-64
2022/10/13 01:29:31;;;;;;;13.63;9.70;;;7.90;1.00;;;;;;5026225;28;20227;-64
2022/10/13 01:32:18;;;;;;;13.30;9.10;;;7.80;1.00;;;;;;5025206;28;20199;-63
2022/10/13 01:35:09;;;;;;;13.37;9.43;;;7.90;1.00;;;;;;5018676;28;20196;-66
2022/10/13 01:37:35;;;;;;;12.27;8.53;;;8.00;1.00;;;;;;5020748;28;20192;-66
2022/10/13 01:40:52;;;;;;;13.27;8.90;;;8.00;1.00;;;;;;5020201;28;20225;-66
2022/10/13 01:43:21;;;;;;;13.63;9.13;;;8.00;99.90;;;;;;5013402;28;20291;-67
2022/10/13 01:45:58;;;;;;;14.37;9.30;;;7.90;99.90;;;;;;5022484;28;20262;-66
2022/10/13 01:48:27;;;;;;;12.67;8.90;;;7.90;99.90;;;;;;5006258;28;20187;-67
2022/10/13 01:50:57;;;;;;;11.03;8.20;;;7.90;99.90;;;;;;5019773;28;20231;-66
2022/10/13 01:53:26;;;;;;;12.83;8.47;;;7.90;99.90;;;;;;5021872;28;20464;-67
2022/10/13 01:55:56;;;;;;;11.97;9.27;;;7.90;1.00;;;;;;5032877;28;20655;-66
2022/10/13 01:58:26;;;;;;;15.27;10.60;;;8.00;1.00;;;;;;5017181;28;20787;-67
2022/10/13 02:01:17;;;;;;;13.67;9.27;;;8.00;1.00;;;;;;5033409;28;20200;-67
2022/10/13 02:03:56;;;;;;;15.57;9.90;;;8.10;1.00;;;;;;5018085;28;20197;-66
2022/10/13 02:06:26;;;;;;;14.63;10.63;;;8.20;1.00;;;;;;5019727;28;20209;-66
2022/10/13 02:09:15;;;;;;;20.63;15.00;;;8.20;1.00;;;;;;5021004;28;20722;-66
2022/10/13 02:11:49;;;;;;;24.57;16.33;;;8.30;1.00;;;;;;5025968;28;20196;-66
2022/10/13 02:14:31;;;;;;;29.30;19.87;;;8.30;1.00;;;;;;5034603;28;20251;-66
2022/10/13 02:17:01;;;;;;;25.37;19.20;;;8.30;1.00;;;;;;5019262;28;20204;-67
2022/10/13 02:19:32;;;;;;;27.63;20.83;;;8.40;1.00;;;;;;5018015;28;20686;-65
2022/10/13 02:21:59;;;;;;;37.37;23.10;;;8.40;99.90;;;;;;5000849;28;20322;-65
2022/10/13 02:24:26;;;;;;;29.80;21.23;;;8.50;99.90;;;;;;5019460;28;20207;-65
2022/10/13 02:26:53;;;;;;;25.07;16.67;;;8.40;99.90;;;;;;5019946;28;21260;-66
2022/10/13 02:29:21;;;;;;;23.07;15.73;;;8.50;99.90;;;;;;5017396;28;20264;-66
2022/10/13 02:31:48;;;;;;;27.80;18.83;;;8.50;99.90;;;;;;5025216;28;20262;-67
2022/10/13 02:34:15;;;;;;;20.77;14.03;;;8.50;99.90;;;;;;5017718;28;20280;-66
2022/10/13 02:36:45;;;;;;;18.53;13.90;;;8.50;99.90;;;;;;5017483;28;20215;-66
2022/10/13 02:39:12;;;;;;;26.53;18.23;;;8.60;99.90;;;;;;5017154;28;20200;-67
2022/10/13 02:41:39;;;;;;;10.50;8.47;;;8.60;99.90;;;;;;5019256;28;20200;-66
2022/10/13 02:44:06;;;;;;;11.43;8.70;;;8.50;99.90;;;;;;5014768;28;20255;-66
2022/10/13 02:46:40;;;;;;;12.20;9.00;;;8.50;99.90;;;;;;5019167;28;20648;-65
2022/10/13 02:49:08;;;;;;;17.30;10.03;;;8.50;99.90;;;;;;5018142;28;20192;-66
2022/10/13 02:51:35;;;;;;;11.73;8.87;;;8.50;99.90;;;;;;5000085;28;20556;-66
2022/10/13 02:54:06;;;;;;;12.27;9.33;;;8.50;99.90;;;;;;5018202;28;20192;-66
2022/10/13 02:56:33;;;;;;;15.40;10.07;;;8.50;99.90;;;;;;5017653;28;20311;-67
2022/10/13 02:59:00;;;;;;;17.93;13.40;;;8.40;99.90;;;;;;5017328;28;20220;-65
2022/10/13 03:01:27;;;;;;;17.43;10.80;;;8.40;99.90;;;;;;5015184;28;20205;-66
2022/10/13 03:03:54;;;;;;;18.27;11.73;;;8.50;99.90;;;;;;5020419;28;20228;-66
2022/10/13 03:06:22;;;;;;;19.43;15.33;;;8.40;99.90;;;;;;5016658;28;20242;-67
2022/10/13 03:08:49;;;;;;;17.73;12.23;;;8.50;99.90;;;;;;5038372;28;20201;-66
2022/10/13 03:11:16;;;;;;;17.63;12.00;;;8.50;99.90;;;;;;5022580;28;20230;-67
2022/10/13 03:13:43;;;;;;;22.27;14.90;;;8.50;99.90;;;;;;5022483;28;20266;-67
2022/10/13 03:16:10;;;;;;;16.80;9.97;;;8.50;99.90;;;;;;5021515;28;20233;-66
2022/10/13 03:18:37;;;;;;;13.60;10.07;;;8.50;99.90;;;;;;5022408;28;20205;-66
2022/10/13 03:21:05;;;;;;;21.20;12.87;;;8.60;99.90;;;;;;5023864;28;20557;-66
2022/10/13 03:23:33;;;;;;;16.83;11.43;;;8.70;92.40;;;;;;5022015;28;20188;-65
2022/10/13 03:26:01;;;;;;;15.23;10.60;;;8.70;1.00;;;;;;5003293;28;20232;-66
2022/10/13 03:28:28;;;;;;;14.93;10.00;;;8.70;1.00;;;;;;5032621;28;20596;-65
2022/10/13 03:31:07;;;;;;;14.40;11.03;;;8.70;79.40;;;;;;5039100;28;20218;-66
2022/10/13 03:33:34;;;;;;;15.40;11.03;;;8.60;99.90;;;;;;5054757;28;20192;-66
2022/10/13 03:36:04;;;;;;;16.80;10.23;;;8.60;99.90;;;;;;5044644;28;20816;-66
2022/10/13 03:38:33;;;;;;;14.63;9.33;;;8.60;99.90;;;;;;5031559;28;20258;-65
2022/10/13 03:41:11;;;;;;;15.20;10.13;;;8.60;99.90;;;;;;5008008;28;20877;-65
2022/10/13 03:43:39;;;;;;;13.30;9.90;;;8.60;1.00;;;;;;5024583;28;20226;-65
2022/10/13 03:46:07;;;;;;;14.03;9.73;;;8.60;1.00;;;;;;5044241;28;20227;-66
2022/10/13 03:48:35;;;;;;;14.83;10.53;;;8.60;1.00;;;;;;5055972;28;20323;-65
2022/10/13 03:51:13;;;;;;;12.53;10.30;;;8.70;1.00;;;;;;5023093;28;20223;-65
2022/10/13 03:53:45;;;;;;;15.60;10.27;;;8.70;1.00;;;;;;5043101;28;20553;-65
2022/10/13 03:56:19;;;;;;;16.17;9.63;;;8.70;1.00;;;;;;5028908;28;20197;-65
2022/10/13 03:58:55;;;;;;;13.17;9.70;;;8.70;1.00;;;;;;5023919;28;20700;-66
2022/10/13 04:01:26;;;;;;;13.57;10.30;;;8.70;1.00;;;;;;5040647;28;20195;-65
2022/10/13 04:03:54;;;;;;;16.03;11.87;;;8.70;1.00;;;;;;5041500;28;20253;-65
2022/10/13 04:06:23;;;;;;;16.70;11.10;;;8.70;1.00;;;;;;5038894;28;20192;-65
2022/10/13 04:08:50;;;;;;;12.87;10.93;;;8.70;1.00;;;;;;5055841;28;20254;-65
2022/10/13 04:11:18;;;;;;;12.03;9.63;;;8.70;1.00;;;;;;5044995;28;20219;-66
2022/10/13 04:13:49;;;;;;;18.27;11.10;;;8.80;1.00;;;;;;5039261;28;20274;-68
2022/10/13 04:16:22;;;;;;;17.37;11.07;;;8.80;1.00;;;;;;5037925;28;20459;-66
2022/10/13 04:18:53;;;;;;;13.73;9.97;;;8.80;1.00;;;;;;5022625;28;20566;-66
2022/10/13 04:21:21;;;;;;;13.23;10.20;;;8.80;1.00;;;;;;5039208;28;20269;-66
2022/10/13 04:23:48;;;;;;;14.23;10.30;;;8.80;1.00;;;;;;5023855;28;20242;-67
2022/10/13 04:26:19;;;;;;;12.50;9.73;;;8.80;1.00;;;;;;5021127;28;20632;-67
2022/10/13 04:28:48;;;;;;;14.30;9.50;;;8.90;1.00;;;;;;5038326;28;20259;-67
2022/10/13 04:31:16;;;;;;;19.13;10.87;;;8.80;1.00;;;;;;5022160;28;20350;-66
2022/10/13 04:33:44;;;;;;;15.13;10.47;;;8.90;1.00;;;;;;5037433;28;20200;-67
2022/10/13 04:36:13;;;;;;;15.10;10.77;;;8.80;1.00;;;;;;5002627;28;20200;-66
2022/10/13 04:38:40;;;;;;;14.60;10.13;;;8.80;1.00;;;;;;5035994;28;20192;-66
2022/10/13 04:41:09;;;;;;;19.57;12.10;;;8.80;1.00;;;;;;5022114;28;20305;-66
2022/10/13 04:43:36;;;;;;;14.47;11.13;;;8.80;73.10;;;;;;5021697;28;20658;-66
2022/10/13 04:46:08;;;;;;;18.20;10.97;;;8.80;99.90;;;;;;5050666;28;20271;-66
2022/10/13 04:48:35;;;;;;;17.07;11.97;;;8.80;99.90;;;;;;5037861;28;20184;-66
2022/10/13 04:51:05;;;;;;;14.10;10.63;;;8.80;99.90;;;;;;5018144;28;20219;-65
2022/10/13 04:53:33;;;;;;;17.10;10.77;;;8.80;99.90;;;;;;5035416;28;20308;-65
2022/10/13 04:56:02;;;;;;;21.33;13.03;;;8.80;99.90;;;;;;5034946;28;20195;-65
2022/10/13 04:58:30;;;;;;;17.53;11.97;;;8.80;99.90;;;;;;5021265;28;20203;-65
2022/10/13 05:01:01;;;;;;;17.40;11.83;;;8.80;99.90;;;;;;5029138;28;20202;-65
2022/10/13 05:03:28;;;;;;;17.87;12.30;;;8.80;99.90;;;;;;5040004;28;20532;-65
2022/10/13 05:05:55;;;;;;;16.27;11.73;;;8.70;99.90;;;;;;5038153;28;20673;-65
2022/10/13 05:08:23;;;;;;;14.33;10.97;;;8.80;99.90;;;;;;5038323;28;20191;-66
2022/10/13 05:11:00;;;;;;;15.53;11.73;;;8.80;99.90;;;;;;5039827;28;20210;-65
2022/10/13 05:13:28;;;;;;;16.53;11.80;;;8.80;99.90;;;;;;5037279;28;20718;-65
2022/10/13 05:15:58;;;;;;;17.57;12.87;;;8.80;99.90;;;;;;5036363;28;20510;-65
2022/10/13 05:18:25;;;;;;;20.43;12.40;;;8.80;99.90;;;;;;5029904;28;20322;-65
2022/10/13 05:20:52;;;;;;;17.83;11.93;;;8.80;99.90;;;;;;5023952;28;20199;-65
2022/10/13 05:23:19;;;;;;;19.20;12.40;;;8.80;99.90;;;;;;5053523;28;20287;-64
2022/10/13 05:25:46;;;;;;;16.53;13.20;;;8.80;99.90;;;;;;5036312;28;20196;-65
2022/10/13 05:28:16;;;;;;;18.63;12.30;;;8.80;99.90;;;;;;5033289;28;20644;-65
2022/10/13 05:30:43;;;;;;;16.83;13.23;;;8.80;99.90;;;;;;5019550;28;20327;-65
2022/10/13 05:33:10;;;;;;;20.50;14.77;;;8.80;99.90;;;;;;5036984;28;20200;-65
2022/10/13 05:35:37;;;;;;;19.93;14.40;;;8.80;99.90;;;;;;5037681;28;20261;-66
2022/10/13 05:38:04;;;;;;;18.83;14.80;;;8.90;99.90;;;;;;5053044;28;20287;-65
2022/10/13 05:40:32;;;;;;;17.83;12.77;;;8.90;99.90;;;;;;5019581;28;20286;-65
2022/10/13 05:43:00;;;;;;;17.40;11.57;;;8.90;99.90;;;;;;5019928;28;20199;-65
2022/10/13 05:45:31;;;;;;;21.03;12.87;;;8.90;99.90;;;;;;5052217;28;20199;-65
2022/10/13 05:47:58;;;;;;;18.90;12.60;;;8.90;99.90;;;;;;5019575;28;20195;-66
2022/10/13 05:50:25;;;;;;;15.80;11.77;;;9.00;99.90;;;;;;5035431;28;20195;-66
2022/10/13 05:52:52;;;;;;;19.43;13.13;;;9.10;99.90;;;;;;5036437;28;20208;-64
2022/10/13 05:55:19;;;;;;;19.97;12.67;;;9.10;41.80;;;;;;5019076;28;20201;-65
2022/10/13 05:57:49;;;;;;;19.73;12.30;;;9.00;27.60;;;;;;5018413;28;20290;-64
2022/10/13 06:00:19;;;;;;;15.80;12.93;;;9.00;23.30;;;;;;5053849;28;20203;-64
2022/10/13 06:06:58;;;;;;;15.97;12.03;;;9.00;99.90;;;;;;5089751;22;20326;-65
2022/10/13 06:09:33;;;;;;;16.13;11.73;;;9.00;99.90;;;;;;5046502;28;20206;-65
2022/10/13 06:12:00;;;;;;;19.97;15.17;;;9.00;99.90;;;;;;5061302;28;20633;-66
2022/10/13 06:14:27;;;;;;;19.10;13.83;;;9.10;99.90;;;;;;5043447;28;20277;-65
2022/10/13 06:16:55;;;;;;;20.87;14.23;;;9.00;99.90;;;;;;5045988;28;20676;-68
2022/10/13 06:19:22;;;;;;;26.50;17.07;;;9.10;99.90;;;;;;5056221;28;20209;-64
2022/10/13 06:21:49;;;;;;;24.43;16.47;;;9.10;98.70;;;;;;5022761;28;20227;-63
2022/10/13 06:24:16;;;;;;;22.53;15.57;;;9.10;99.90;;;;;;5042814;28;20230;-63
2022/10/13 06:26:43;;;;;;;25.03;14.23;;;9.10;99.90;;;;;;5040925;28;20196;-64
2022/10/13 06:29:10;;;;;;;31.10;15.90;;;9.10;99.90;;;;;;5058438;28;20202;-65
2022/10/13 06:31:37;;;;;;;21.57;13.77;;;9.20;99.90;;;;;;5057163;28;20305;-64
2022/10/13 06:34:06;;;;;;;27.30;14.07;;;9.30;99.90;;;;;;5058823;28;20617;-63
2022/10/13 06:36:33;;;;;;;27.13;13.77;;;9.40;1.00;;;;;;5041256;28;20187;-65
2022/10/13 06:39:00;;;;;;;27.37;15.50;;;9.50;1.00;;;;;;5048022;28;20574;-66
2022/10/13 06:41:27;;;;;;;31.10;18.17;;;9.60;1.00;;;;;;5052284;28;20231;-64
2022/10/13 06:43:54;;;;;;;42.50;21.83;;;9.70;1.00;;;;;;5062616;28;20260;-64
2022/10/13 06:46:21;;;;;;;50.50;25.80;;;9.80;1.00;;;;;;5062925;28;20203;-64
2022/10/13 06:48:49;;;;;;;27.83;18.17;;;9.90;1.00;;;;;;5063433;28;20276;-65
2022/10/13 06:51:17;;;;;;;39.77;22.67;;;10.10;99.90;;;;;;5025837;28;20587;-65
2022/10/13 06:53:44;;;;;;;38.00;21.27;;;10.20;99.90;;;;;;5061771;28;20225;-65
2022/10/13 06:56:11;;;;;;;35.60;19.33;;;10.30;99.90;;;;;;5061444;28;20191;-64
2022/10/13 06:58:38;;;;;;;39.70;20.13;;;10.40;85.10;;;;;;5061008;28;20202;-65
2022/10/13 07:01:05;;;;;;;38.10;21.67;;;10.50;1.00;;;;;;5052303;28;20293;-65
2022/10/13 07:03:32;;;;;;;27.27;17.03;;;10.50;1.00;;;;;;5061427;28;20203;-65
2022/10/13 07:06:01;;;;;;;23.73;12.73;;;10.50;26.30;;;;;;5041935;28;20246;-64
2022/10/13 07:08:28;;;;;;;40.93;21.87;;;10.60;81.00;;;;;;5047171;28;20339;-64
2022/10/13 07:10:55;;;;;;;32.23;17.50;;;10.60;99.90;;;;;;5039785;28;20878;-64
2022/10/13 07:13:22;;;;;;;23.00;13.80;;;10.70;1.00;;;;;;5040284;28;20259;-64
2022/10/13 07:15:49;;;;;;;31.87;14.57;;;10.80;1.00;;;;;;5044845;28;20192;-65
2022/10/13 07:18:16;;;;;;;25.67;15.53;;;10.90;1.00;;;;;;5040116;28;20180;-65
2022/10/13 07:20:43;;;;;;;24.50;14.03;;;11.00;23.70;;;;;;5040445;28;20283;-64
2022/10/13 07:23:10;;;;;;;19.97;12.57;;;11.00;99.90;;;;;;5041499;28;20196;-65
2022/10/13 07:25:37;;;;;;;19.90;13.50;;;11.10;99.90;;;;;;5040704;28;20311;-64
2022/10/13 07:28:04;;;;;;;19.50;12.67;;;11.20;99.90;;;;;;5047532;28;20743;-65
2022/10/13 07:30:31;;;;;;;24.90;13.93;;;11.20;99.90;;;;;;5040154;28;20185;-65
2022/10/13 07:32:58;;;;;;;20.03;14.00;;;11.30;99.90;;;;;;5046729;28;20211;-64
2022/10/13 07:35:25;;;;;;;30.73;16.57;;;11.50;99.90;;;;;;5040228;28;20206;-65
2022/10/13 07:37:56;;;;;;;25.97;14.07;;;11.70;1.00;;;;;;5040477;28;20573;-64
2022/10/13 07:40:23;;;;;;;17.30;11.57;;;11.90;1.00;;;;;;5046989;28;20195;-65
2022/10/13 07:42:50;;;;;;;26.10;20.37;;;12.10;1.00;;;;;;5043475;28;20222;-65
2022/10/13 07:45:17;;;;;;;27.70;19.27;;;12.30;1.00;;;;;;5041110;28;20200;-65
2022/10/13 07:47:44;;;;;;;23.90;15.50;;;12.50;99.90;;;;;;5040016;28;20230;-64
2022/10/13 07:50:11;;;;;;;20.37;14.23;;;12.70;99.90;;;;;;5037005;28;20746;-65
2022/10/13 07:52:39;;;;;;;29.10;21.10;;;12.90;99.90;;;;;;5038965;28;20769;-64
2022/10/13 07:55:09;;;;;;;27.87;21.33;;;13.10;99.90;;;;;;5044355;28;20222;-65
2022/10/13 07:57:36;;;;;;;16.17;12.70;;;13.40;99.90;;;;;;5040378;28;20569;-65
2022/10/13 08:00:08;;;;;;;21.40;10.80;;;13.70;36.00;;;;;;5039192;28;20577;-65
2022/10/13 08:02:38;;;;;;;16.13;9.87;;;14.10;1.00;;;;;;5039886;28;20191;-65
2022/10/13 08:05:06;;;;;;;13.33;8.43;;;14.60;1.00;;;;;;5038366;28;21111;-65
2022/10/13 08:07:33;;;;;;;13.15;7.93;;;15.00;1.00;;;;;;5047154;28;20223;-66
2022/10/13 08:10:00;;;;;;;16.48;8.68;;;15.30;1.00;;;;;;5048412;28;20191;-66
2022/10/13 08:12:27;;;;;;;26.38;21.80;;;15.70;1.00;;;;;;5055926;28;20249;-66
2022/10/13 08:14:54;;;;;;;16.10;8.57;;;16.10;1.00;;;;;;5041380;28;20234;-66
2022/10/13 08:17:21;;;;;;;14.93;7.30;;;16.40;1.00;;;;;;5032090;28;20230;-65
2022/10/13 08:19:50;;;;;;;17.83;11.93;;;16.60;1.00;;;;;;5048022;28;20617;-65
2022/10/13 08:22:18;;;;;;;17.35;8.25;;;16.40;1.00;;;;;;5033949;28;20706;-66
2022/10/13 08:24:48;;;;;;;17.17;9.07;;;15.80;1.00;;;;;;5042139;28;20199;-65
2022/10/13 08:27:23;;;;;;;15.38;8.75;;;16.00;1.00;;;;;;5050160;28;20241;-65
2022/10/13 08:30:08;;;;;;;22.52;13.88;;;16.30;1.00;;;;;;5060373;28;20717;-66
2022/10/13 08:32:36;;;;;;;17.40;12.02;;;16.60;1.00;;;;;;5040949;28;20215;-65
2022/10/13 08:35:03;;;;;;;15.43;9.18;;;16.60;1.00;;;;;;5059992;28;20191;-66
2022/10/13 08:37:30;;;;;;;17.80;11.18;;;16.80;1.00;;;;;;5039692;28;20438;-66
2022/10/13 08:39:57;;;;;;;15.57;10.02;;;16.70;1.00;;;;;;5043765;28;20235;-65
2022/10/13 08:42:24;;;;;;;19.65;13.57;;;16.80;1.00;;;;;;5045127;28;20203;-65
2022/10/13 08:44:58;;;;;;;12.90;7.10;;;16.80;1.00;;;;;;5056410;28;20199;-65
2022/10/13 08:48:11;;;;;;;13.32;8.77;;;16.70;1.00;;;;;;5045398;28;20179;-65
2022/10/13 08:50:41;;;;;;;15.20;7.70;;;16.60;1.00;;;;;;5040508;28;20230;-65
2022/10/13 08:53:33;;;;;;;15.32;8.68;;;16.50;1.00;;;;;;5058475;28;20289;-65
2022/10/13 08:56:19;;;;;;;11.38;6.40;;;16.50;1.00;;;;;;5056955;28;20607;-66
2022/10/13 08:58:49;;;;;;;11.10;7.63;;;16.50;1.00;;;;;;5044114;28;20294;-65
2022/10/13 09:01:47;;;;;;;11.20;7.13;;;16.40;1.00;;;;;;5041573;28;20741;-65
2022/10/13 09:04:26;;;;;;;10.27;7.07;;;16.30;1.00;;;;;;5058317;28;20272;-65
2022/10/13 09:07:14;;;;;;;11.65;7.78;;;16.30;1.00;;;;;;5038086;28;20737;-66
2022/10/13 09:09:42;;;;;;;14.10;6.47;;;16.20;1.00;;;;;;5043247;28;20835;-65
2022/10/13 09:12:11;;;;;;;10.55;6.40;;;16.20;1.00;;;;;;5057073;28;20219;-65
2022/10/13 09:14:40;;;;;;;14.85;6.80;;;16.40;1.00;;;;;;5057741;28;20212;-65
2022/10/13 09:17:19;;;;;;;14.82;7.22;;;16.60;1.00;;;;;;5041333;28;20255;-65
2022/10/13 09:20:09;;;;;;;13.05;6.05;;;16.70;1.00;;;;;;5041992;28;20282;-65
2022/10/13 09:22:39;;;;;;;12.75;6.88;;;16.60;1.00;;;;;;5033850;28;20606;-65
2022/10/13 09:25:06;;;;;;;10.50;6.78;;;16.70;1.00;;;;;;5058673;28;20182;-65
2022/10/13 09:27:57;;;;;;;12.55;6.10;;;16.80;1.00;;;;;;5047443;28;20291;-65
2022/10/13 09:30:30;;;;;;;9.43;5.50;;;16.80;1.00;;;;;;5036429;28;20222;-65
2022/10/13 09:33:08;;;;;;;13.20;7.97;;;17.00;1.00;;;;;;5059673;28;20293;-66
2022/10/13 09:35:36;;;;;;;19.58;11.60;;;17.10;1.00;;;;;;5043360;28;21130;-65
2022/10/13 09:38:14;;;;;;;8.57;5.82;;;17.20;1.00;;;;;;5060310;28;20279;-65
2022/10/13 09:40:42;;;;;;;16.77;8.55;;;17.50;1.00;;;;;;5042535;28;20191;-65
2022/10/13 09:43:37;;;;;;;11.50;7.60;;;17.20;1.00;;;;;;5058176;28;20260;-66
2022/10/13 09:46:21;;;;;;;12.52;6.55;;;16.70;1.00;;;;;;5057727;28;20198;-65
2022/10/13 09:48:52;;;;;;;10.93;6.45;;;16.70;1.00;;;;;;5057397;28;20207;-65
2022/10/13 09:51:40;;;;;;;12.98;8.88;;;16.60;1.00;;;;;;5056756;28;20248;-65
2022/10/13 09:54:36;;;;;;;11.48;7.13;;;16.50;1.00;;;;;;5058691;28;20191;-65
2022/10/13 09:57:40;;;;;;;10.30;6.13;;;16.30;1.00;;;;;;5039070;28;20198;-66
2022/10/13 10:00:23;;;;;;;11.18;6.90;;;16.20;1.00;;;;;;5025828;28;20267;-66
2022/10/13 10:02:56;;;;;;;13.80;6.20;;;16.10;1.00;;;;;;5042114;28;20261;-66
2022/10/13 10:05:25;;;;;;;11.70;7.05;;;16.00;1.00;;;;;;5040502;28;20640;-66
2022/10/13 10:08:05;;;;;;;13.15;8.10;;;15.90;1.00;;;;;;5058592;28;20636;-66
2022/10/13 10:10:38;;;;;;;14.13;8.00;;;16.10;1.00;;;;;;5061221;28;20183;-66
2022/10/13 10:13:13;;;;;;;12.20;7.68;;;16.00;1.00;;;;;;5049555;28;20215;-66
2022/10/13 10:16:06;;;;;;;12.93;9.25;;;16.20;1.00;;;;;;5045231;28;20226;-66
2022/10/13 10:18:54;;;;;;;11.90;6.82;;;16.60;1.00;;;;;;5033660;28;20192;-66
2022/10/13 10:21:48;;;;;;;16.83;12.90;;;16.60;1.00;;;;;;5067126;28;20345;-65
2022/10/13 10:24:28;;;;;;;14.23;11.27;;;17.10;1.00;;;;;;5065304;28;20214;-65
2022/10/13 10:27:20;;;;;;;19.30;13.45;;;17.60;1.00;;;;;;5048412;28;20244;-65
2022/10/13 10:29:57;;;;;;;16.55;8.82;;;17.80;1.00;;;;;;5030944;28;20191;-65
2022/10/13 10:32:27;;;;;;;9.73;5.68;;;18.50;1.00;;;;;;5065409;28;20242;-65
2022/10/13 10:35:37;;;;;;;15.85;7.80;;;18.80;1.00;;;;;;5065675;28;20202;-65
2022/10/13 10:38:42;;;;;;;16.77;9.20;;;20.20;1.00;;;;;;5044020;28;20205;-65
2022/10/13 10:41:28;;;;;;;16.33;7.78;;;20.70;1.00;;;;;;5062947;28;20205;-65
2022/10/13 10:44:18;;;;;;;13.20;7.68;;;20.10;1.00;;;;;;5062146;28;20194;-65
2022/10/13 10:46:49;;;;;;;17.27;9.15;;;20.70;1.00;;;;;;5062946;28;20188;-66
2022/10/13 10:49:29;;;;;;;12.65;7.63;;;22.70;1.00;;;;;;5065269;28;20187;-65
2022/10/13 10:51:59;;;;;;;10.07;5.22;;;26.20;1.00;;;;;;5031989;28;20738;-65
2022/10/13 10:54:44;;;;;;;12.75;5.53;;;24.20;1.00;;;;;;5063880;28;20179;-66
2022/10/13 10:57:40;;;;;;;9.25;5.20;;;23.30;1.00;;;;;;5064656;28;20192;-66
2022/10/13 11:00:20;;;;;;;10.30;5.20;;;22.40;1.00;;;;;;5043507;28;20195;-66
2022/10/13 11:02:47;;;;;;;7.65;4.50;;;21.50;1.00;;;;;;5030615;28;20213;-65
2022/10/13 11:05:15;;;;;;;7.68;5.15;;;21.60;1.00;;;;;;5061212;28;20191;-66
2022/10/13 11:07:41;;;;;;;8.25;5.60;;;21.20;1.00;;;;;;5065489;28;20303;-66
2022/10/13 11:10:17;;;;;;;9.57;4.80;;;22.30;1.00;;;;;;5053441;28;20199;-65
2022/10/13 11:12:50;;;;;;;9.57;4.78;;;22.80;1.00;;;;;;5051178;28;20223;-65
2022/10/13 11:15:25;;;;;;;8.88;4.32;;;22.70;1.00;;;;;;5050016;28;20641;-65
2022/10/13 11:17:52;;;;;;;10.40;4.57;;;22.30;1.00;;;;;;5064865;28;20249;-65
2022/10/13 11:20:19;;;;;;;6.45;4.05;;;23.60;1.00;;;;;;5049640;28;20202;-65
2022/10/13 11:23:06;;;;;;;10.48;4.45;;;21.70;1.00;;;;;;5045982;28;20211;-65
2022/10/13 11:25:43;;;;;;;7.00;4.32;;;21.00;1.00;;;;;;5034172;28;20238;-65
2022/10/13 11:28:20;;;;;;;9.88;4.03;;;21.40;1.00;;;;;;5064047;28;20268;-66
2022/10/13 11:30:54;;;;;;;7.15;4.45;;;20.70;1.00;;;;;;5043424;28;20194;-65
2022/10/13 11:33:39;;;;;;;10.65;4.40;;;20.30;1.00;;;;;;5064595;28;20211;-65
2022/10/13 11:36:27;;;;;;;7.07;4.20;;;19.90;1.00;;;;;;5064161;28;20190;-65
2022/10/13 11:39:23;;;;;;;8.38;4.43;;;19.90;1.00;;;;;;5048475;28;20242;-64
2022/10/13 11:42:18;;;;;;;9.43;4.70;;;19.60;1.00;;;;;;5048157;28;20192;-65
2022/10/13 11:44:58;;;;;;;9.18;4.20;;;19.70;1.00;;;;;;5021173;28;20592;-64
2022/10/13 11:47:56;;;;;;;8.07;4.65;;;20.20;1.00;;;;;;5063418;28;20241;-64
2022/10/13 11:50:35;;;;;;;9.85;4.70;;;20.20;1.00;;;;;;5059570;28;20639;-65
2022/10/13 11:53:20;;;;;;;11.57;5.13;;;20.50;1.00;;;;;;5047082;28;20239;-65
2022/10/13 11:55:54;;;;;;;6.78;4.25;;;20.20;1.00;;;;;;5046602;28;20203;-65
2022/10/13 11:58:23;;;;;;;8.07;4.70;;;20.30;1.00;;;;;;5062193;28;20202;-65
2022/10/13 12:01:03;;;;;;;12.00;5.15;;;20.60;1.00;;;;;;5034617;28;20691;-65
2022/10/13 12:03:35;;;;;;;5.80;4.40;;;21.00;1.00;;;;;;5044685;28;20214;-65
2022/10/13 12:06:20;;;;;;;8.32;4.55;;;21.30;1.00;;;;;;5034466;28;20249;-65
2022/10/13 12:08:48;;;;;;;13.18;4.60;;;20.10;1.00;;;;;;5062306;28;20202;-65
2022/10/13 12:11:28;;;;;;;6.18;4.18;;;20.30;1.00;;;;;;5065402;28;20202;-66
2022/10/13 12:13:55;;;;;;;9.88;4.32;;;20.80;1.00;;;;;;5060358;28;20928;-65
2022/10/13 12:16:22;;;;;;;10.73;4.85;;;20.90;1.00;;;;;;5062570;28;20183;-65
2022/10/13 12:18:50;;;;;;;6.03;3.88;;;21.00;1.00;;;;;;5041370;28;20278;-66
2022/10/13 12:21:21;;;;;;;6.90;4.55;;;20.80;1.00;;;;;;5058918;28;20223;-65
2022/10/13 12:23:50;;;;;;;8.25;4.57;;;20.00;1.00;;;;;;5034531;28;20289;-66
2022/10/13 12:26:20;;;;;;;7.20;4.40;;;19.40;1.00;;;;;;5040884;28;20231;-65
2022/10/13 12:28:52;;;;;;;8.68;4.45;;;19.10;1.00;;;;;;5061827;28;20203;-65
2022/10/13 12:31:21;;;;;;;7.72;4.38;;;19.70;1.00;;;;;;5049175;28;20210;-65
2022/10/13 12:34:00;;;;;;;8.20;3.83;;;19.90;1.00;;;;;;5061518;28;20211;-65
2022/10/13 12:36:30;;;;;;;9.35;4.00;;;20.20;1.00;;;;;;5061250;28;20873;-65
2022/10/13 12:39:03;;;;;;;7.90;3.42;;;20.30;1.00;;;;;;5030312;28;20634;-65
2022/10/13 12:41:36;;;;;;;11.85;4.35;;;20.70;1.00;;;;;;5044035;28;20253;-65
2022/10/13 12:44:04;;;;;;;6.88;3.63;;;20.60;1.00;;;;;;5062982;28;20250;-65
2022/10/13 12:46:37;;;;;;;10.27;4.28;;;20.40;1.00;;;;;;5044411;28;20272;-65
2022/10/13 12:49:06;;;;;;;8.88;3.92;;;19.80;1.00;;;;;;5062140;28;20313;-65
2022/10/13 12:51:36;;;;;;;6.10;4.20;;;19.80;1.00;;;;;;5063613;28;20683;-65
2022/10/13 12:54:08;;;;;;;7.40;3.83;;;19.70;1.00;;;;;;5047588;28;20207;-65
2022/10/13 12:56:35;;;;;;;8.05;4.00;;;19.60;1.00;;;;;;5058425;28;20198;-65
2022/10/13 12:59:03;;;;;;;10.73;4.43;;;19.60;1.00;;;;;;5027929;28;20285;-64
2022/10/13 13:01:34;;;;;;;11.35;4.40;;;19.80;1.00;;;;;;5049880;28;20203;-65
2022/10/13 13:04:14;;;;;;;8.50;3.78;;;19.60;1.00;;;;;;5043240;28;20328;-65
2022/10/13 13:07:01;;;;;;;7.18;3.97;;;19.50;1.00;;;;;;5034300;28;20335;-65
2022/10/13 13:09:34;;;;;;;4.97;3.58;;;19.70;1.00;;;;;;5059551;28;20192;-65
2022/10/13 13:12:07;;;;;;;6.63;4.40;;;19.50;1.00;;;;;;5045777;28;20207;-65
2022/10/13 13:14:48;;;;;;;7.95;4.00;;;19.20;1.00;;;;;;5042322;28;20569;-65
2022/10/13 13:17:18;;;;;;;6.57;4.50;;;18.90;1.00;;;;;;5048893;28;20217;-66